createdAt,value
2023-02-26T00:00:21.437Z,-2.80
2023-02-26T00:02:48.860Z,-2.80
2023-02-26T00:05:16.720Z,-2.80
2023-02-26T00:07:43.944Z,-2.80
2023-02-26T00:10:13.297Z,-2.80
2023-02-26T00:12:40.728Z,-2.90
2023-02-26T00:15:08.687Z,-2.90
2023-02-26T00:17:49.154Z,-2.90
2023-02-26T00:20:17.172Z,-2.90
2023-02-26T00:22:44.723Z,-2.90
2023-02-26T00:25:12.378Z,-2.90
2023-02-26T00:27:39.886Z,-2.90
2023-02-26T00:30:09.796Z,-2.90
2023-02-26T00:32:37.594Z,-2.90
2023-02-26T00:35:05.875Z,-2.90
2023-02-26T00:37:58.024Z,-3.00
2023-02-26T00:40:43.122Z,-3.00
2023-02-26T00:43:22.822Z,-3.10
2023-02-26T00:46:21.321Z,-3.10
2023-02-26T00:49:29.075Z,-3.10
2023-02-26T00:51:59.301Z,-3.10
2023-02-26T00:54:28.749Z,-3.20
2023-02-26T00:56:56.975Z,-3.20
2023-02-26T00:59:24.808Z,-3.20
2023-02-26T01:01:53.399Z,-3.30
2023-02-26T01:04:22.840Z,-3.30
2023-02-26T01:07:41.287Z,-3.30
2023-02-26T01:10:09.887Z,-3.40
2023-02-26T01:12:37.169Z,-3.40
2023-02-26T01:15:06.362Z,-3.40
2023-02-26T01:17:47.657Z,-3.40
2023-02-26T01:20:28.877Z,-3.40
2023-02-26T01:23:00.145Z,-3.50
2023-02-26T01:25:36.852Z,-3.50
2023-02-26T01:28:04.265Z,-3.50
2023-02-26T01:30:31.634Z,-3.40
2023-02-26T01:33:17.390Z,-3.50
2023-02-26T01:35:52.587Z,-3.50
2023-02-26T01:38:48.018Z,-3.50
2023-02-26T01:41:27.828Z,-3.50
2023-02-26T01:44:03.716Z,-3.50
2023-02-26T01:46:39.000Z,-3.50
2023-02-26T01:49:13.505Z,-3.50
2023-02-26T01:51:48.948Z,-3.60
2023-02-26T01:54:20.814Z,-3.60
2023-02-26T01:56:53.294Z,-3.60
2023-02-26T01:59:24.593Z,-3.70
2023-02-26T02:01:56.951Z,-3.70
2023-02-26T02:04:24.876Z,-3.70
2023-02-26T02:06:52.649Z,-3.70
2023-02-26T02:09:20.492Z,-3.70
2023-02-26T02:12:18.707Z,-3.80
2023-02-26T02:15:11.921Z,-3.80
2023-02-26T02:18:12.341Z,-3.80
2023-02-26T02:21:36.254Z,-3.80
2023-02-26T02:24:36.141Z,-3.90
2023-02-26T02:27:35.656Z,-4.00
2023-02-26T02:30:30.407Z,-4.00
2023-02-26T02:33:12.664Z,-4.00
2023-02-26T02:35:50.232Z,-4.00
2023-02-26T02:38:22.038Z,-4.00
2023-02-26T02:40:57.286Z,-3.90
2023-02-26T02:43:29.486Z,-3.90
2023-02-26T02:46:10.560Z,-3.90
2023-02-26T02:48:47.285Z,-4.00
2023-02-26T02:51:22.647Z,-4.00
2023-02-26T02:53:51.674Z,-4.00
2023-02-26T02:56:45.228Z,-4.00
2023-02-26T02:59:43.790Z,-4.00
2023-02-26T03:02:31.315Z,-4.00
2023-02-26T03:04:58.352Z,-4.10
2023-02-26T03:07:25.757Z,-4.10
2023-02-26T03:09:52.844Z,-4.00
2023-02-26T03:12:19.954Z,-4.10
2023-02-26T03:14:47.264Z,-4.10
2023-02-26T03:17:38.528Z,-4.20
2023-02-26T03:20:31.405Z,-4.20
2023-02-26T03:23:20.065Z,-4.20
2023-02-26T03:25:56.779Z,-4.20
2023-02-26T03:29:12.867Z,-4.20
2023-02-26T03:32:00.589Z,-4.20
2023-02-26T03:34:49.145Z,-4.20
2023-02-26T03:37:25.330Z,-4.20
2023-02-26T03:39:56.928Z,-4.30
2023-02-26T03:42:47.687Z,-4.30
2023-02-26T03:45:20.063Z,-4.30
2023-02-26T03:47:53.882Z,-4.30
2023-02-26T03:50:35.677Z,-4.30
2023-02-26T03:53:31.404Z,-4.30
2023-02-26T03:56:16.158Z,-4.20
2023-02-26T03:59:01.576Z,-4.20
2023-02-26T04:02:02.432Z,-4.30
2023-02-26T04:04:42.488Z,-4.30
2023-02-26T04:07:12.896Z,-4.30
2023-02-26T04:09:45.901Z,-4.30
2023-02-26T04:12:13.917Z,-4.30
2023-02-26T04:14:45.156Z,-4.30
2023-02-26T04:17:12.332Z,-4.30
2023-02-26T04:19:39.355Z,-4.30
2023-02-26T04:22:06.426Z,-4.30
2023-02-26T04:24:33.400Z,-4.40
2023-02-26T04:27:02.342Z,-4.40
2023-02-26T04:29:30.071Z,-4.40
2023-02-26T04:31:57.267Z,-4.40
2023-02-26T04:34:24.347Z,-4.40
2023-02-26T04:36:52.809Z,-4.50
2023-02-26T04:39:20.293Z,-4.50
2023-02-26T04:41:47.650Z,-4.50
2023-02-26T04:44:15.002Z,-4.50
2023-02-26T04:46:42.723Z,-4.50
2023-02-26T04:49:10.143Z,-4.50
2023-02-26T04:51:38.834Z,-4.60
2023-02-26T04:54:53.695Z,-4.60
2023-02-26T04:57:20.736Z,-4.70
2023-02-26T04:59:47.797Z,-4.70
2023-02-26T05:02:15.178Z,-4.70
2023-02-26T05:04:46.421Z,-4.70
2023-02-26T05:07:13.669Z,-4.70
2023-02-26T05:09:42.306Z,-4.70
2023-02-26T05:12:09.286Z,-4.70
2023-02-26T05:14:36.384Z,-4.70
2023-02-26T05:17:03.368Z,-4.70
2023-02-26T05:19:30.325Z,-4.70
2023-02-26T05:21:57.324Z,-4.70
2023-02-26T05:24:24.382Z,-4.70
2023-02-26T05:26:51.381Z,-4.70
2023-02-26T05:29:18.359Z,-4.70
2023-02-26T05:31:45.504Z,-4.70
2023-02-26T05:34:12.620Z,-4.60
2023-02-26T05:36:39.617Z,-4.70
2023-02-26T05:39:06.592Z,-4.60
2023-02-26T05:41:33.577Z,-4.60
2023-02-26T05:44:00.513Z,-4.60
2023-02-26T05:46:27.795Z,-4.60
2023-02-26T05:48:54.969Z,-4.60
2023-02-26T05:51:22.567Z,-4.60
2023-02-26T05:53:49.525Z,-4.60
2023-02-26T05:56:17.914Z,-4.60
2023-02-26T05:58:45.116Z,-4.60
2023-02-26T06:01:12.180Z,-4.60
2023-02-26T06:03:44.189Z,-4.50
2023-02-26T06:06:12.553Z,-4.50
2023-02-26T06:08:39.616Z,-4.50
2023-02-26T06:11:06.606Z,-4.50
2023-02-26T06:13:33.669Z,-4.50
2023-02-26T06:16:00.663Z,-4.50
2023-02-26T06:18:28.106Z,-4.50
2023-02-26T06:20:55.018Z,-4.50
2023-02-26T06:23:53.301Z,-4.50
2023-02-26T06:26:22.125Z,-4.40
2023-02-26T06:28:50.795Z,-4.40
2023-02-26T06:31:17.790Z,-4.40
2023-02-26T06:33:44.939Z,-4.40
2023-02-26T06:36:12.073Z,-4.40
2023-02-26T06:38:39.016Z,-4.40
2023-02-26T06:41:06.330Z,-4.40
2023-02-26T06:43:33.293Z,-4.30
2023-02-26T06:46:00.900Z,-4.30
2023-02-26T06:48:28.447Z,-4.30
2023-02-26T06:50:55.411Z,-4.20
2023-02-26T06:53:22.439Z,-4.20
2023-02-26T06:55:52.443Z,-4.20
2023-02-26T06:58:20.346Z,-4.20
2023-02-26T07:00:47.511Z,-4.20
2023-02-26T07:03:16.890Z,-4.10
2023-02-26T07:05:44.758Z,-4.10
2023-02-26T07:08:12.409Z,-4.10
2023-02-26T07:10:40.069Z,-4.10
2023-02-26T07:13:07.124Z,-4.00
2023-02-26T07:15:34.168Z,-4.00
2023-02-26T07:18:01.206Z,-3.90
2023-02-26T07:20:29.761Z,-3.90
2023-02-26T07:23:03.810Z,-3.80
2023-02-26T07:25:30.819Z,-3.80
2023-02-26T07:28:00.265Z,-3.70
2023-02-26T07:30:27.762Z,-3.70
2023-02-26T07:32:55.396Z,-3.70
2023-02-26T07:35:22.502Z,-3.70
2023-02-26T07:37:49.752Z,-3.70
2023-02-26T07:40:16.845Z,-3.70
2023-02-26T07:42:44.021Z,-3.70
2023-02-26T07:45:12.067Z,-3.60
2023-02-26T07:47:39.115Z,-3.70
2023-02-26T07:50:06.457Z,-3.60
2023-02-26T07:52:33.453Z,-3.60
2023-02-26T07:55:00.457Z,-3.60
2023-02-26T07:57:42.834Z,-3.50
2023-02-26T08:00:10.427Z,-3.40
2023-02-26T08:02:40.509Z,-3.40
2023-02-26T08:05:08.186Z,-3.40
2023-02-26T08:07:35.259Z,-3.30
2023-02-26T08:10:02.250Z,-3.30
2023-02-26T08:12:29.442Z,-3.30
2023-02-26T08:14:56.601Z,-3.30
2023-02-26T08:17:23.583Z,-3.30
2023-02-26T08:19:50.536Z,-3.30
2023-02-26T08:22:17.501Z,-3.30
2023-02-26T08:24:44.490Z,-3.30
2023-02-26T08:27:13.541Z,-3.20
2023-02-26T08:29:40.672Z,-3.20
2023-02-26T08:32:07.692Z,-3.20
2023-02-26T08:34:34.984Z,-3.20
2023-02-26T08:37:09.416Z,-3.20
2023-02-26T08:39:38.451Z,-3.20
2023-02-26T08:42:09.883Z,-3.20
2023-02-26T08:44:37.164Z,-3.20
2023-02-26T08:47:04.153Z,-3.20
2023-02-26T08:49:31.347Z,-3.30
2023-02-26T08:51:58.435Z,-3.30
2023-02-26T08:54:25.847Z,-3.30
2023-02-26T08:56:55.826Z,-3.30
2023-02-26T08:59:22.807Z,-3.20
2023-02-26T09:01:50.893Z,-3.20
2023-02-26T09:04:18.516Z,-3.10
2023-02-26T09:06:45.841Z,-3.10
2023-02-26T09:09:12.792Z,-3.10
2023-02-26T09:11:40.177Z,-3.00
2023-02-26T09:14:07.207Z,-3.00
2023-02-26T09:16:36.920Z,-3.00
2023-02-26T09:19:05.344Z,-2.90
2023-02-26T09:21:32.630Z,-2.90
2023-02-26T09:25:01.634Z,-2.80
2023-02-26T09:27:28.717Z,-2.80
2023-02-26T09:29:55.742Z,-2.80
2023-02-26T09:32:22.857Z,-2.80
2023-02-26T09:34:49.862Z,-2.70
2023-02-26T09:37:16.827Z,-2.70
2023-02-26T09:39:44.045Z,-2.60
2023-02-26T09:42:32.247Z,-2.60
2023-02-26T09:45:00.371Z,-2.50
2023-02-26T09:47:39.407Z,-2.50
2023-02-26T09:50:10.433Z,-2.50
2023-02-26T09:52:56.231Z,-2.40
2023-02-26T09:55:36.545Z,-2.40
2023-02-26T09:58:05.926Z,-2.30
2023-02-26T10:00:35.780Z,-2.30
2023-02-26T10:03:23.560Z,-2.30
2023-02-26T10:06:22.466Z,-2.30
2023-02-26T10:09:15.742Z,-2.30
2023-02-26T10:12:20.234Z,-2.20
2023-02-26T10:14:54.695Z,-2.10
2023-02-26T10:17:34.907Z,-1.90
2023-02-26T10:20:24.036Z,-1.80
2023-02-26T10:23:16.447Z,-1.80
2023-02-26T10:25:49.535Z,-1.80
2023-02-26T10:28:16.429Z,-1.80
2023-02-26T10:30:51.118Z,-1.90
2023-02-26T10:33:34.556Z,-1.90
2023-02-26T10:36:17.467Z,-1.80
2023-02-26T10:38:49.123Z,-1.80
2023-02-26T10:41:20.821Z,-1.70
2023-02-26T10:44:16.460Z,-1.60
2023-02-26T10:46:47.868Z,-1.60
2023-02-26T10:49:26.660Z,-1.60
2023-02-26T10:51:55.278Z,-1.60
2023-02-26T10:54:35.246Z,-1.70
2023-02-26T10:58:01.176Z,-1.70
2023-02-26T11:00:28.243Z,-1.70
2023-02-26T11:02:57.017Z,-1.70
2023-02-26T11:05:31.007Z,-1.70
2023-02-26T11:08:03.340Z,-1.70
2023-02-26T11:10:57.906Z,-1.60
2023-02-26T11:13:32.648Z,-1.50
2023-02-26T11:16:05.185Z,-1.50
2023-02-26T11:18:55.788Z,-1.50
2023-02-26T11:21:35.673Z,-1.50
2023-02-26T11:24:08.119Z,-1.50
2023-02-26T11:27:30.967Z,-1.50
2023-02-26T11:30:00.093Z,-1.50
2023-02-26T11:32:36.399Z,-1.50
2023-02-26T11:35:07.063Z,-1.50
2023-02-26T11:37:41.018Z,-1.50
2023-02-26T11:40:33.397Z,-1.40
2023-02-26T11:43:05.229Z,-1.40
2023-02-26T11:45:36.891Z,-1.30
2023-02-26T11:48:07.995Z,-1.30
2023-02-26T11:50:45.229Z,-1.30
2023-02-26T11:53:36.720Z,-1.20
2023-02-26T11:56:13.577Z,-1.30
2023-02-26T11:58:43.555Z,-1.30
2023-02-26T12:01:12.844Z,-1.30
2023-02-26T12:03:44.120Z,-1.30
2023-02-26T12:06:21.169Z,-1.30
2023-02-26T12:08:48.745Z,-1.30
2023-02-26T12:11:22.273Z,-1.30
2023-02-26T12:14:08.753Z,-1.30
2023-02-26T12:17:26.696Z,-1.30
2023-02-26T12:20:20.595Z,-1.20
2023-02-26T12:22:54.863Z,-1.10
2023-02-26T12:25:39.938Z,-1.10
2023-02-26T12:33:10.760Z,-0.90
2023-02-26T12:36:21.916Z,-0.70
2023-02-26T12:39:15.909Z,-0.70
2023-02-26T12:42:24.182Z,-0.60
2023-02-26T12:45:16.723Z,-0.70
2023-02-26T12:47:51.257Z,-0.70
2023-02-26T12:50:32.421Z,-0.80
2023-02-26T12:53:05.559Z,-0.80
2023-02-26T12:55:59.768Z,-0.80
2023-02-26T12:58:42.467Z,-0.60
2023-02-26T13:01:28.514Z,-0.60
2023-02-26T13:04:09.873Z,-0.60
2023-02-26T13:06:39.621Z,-0.50
2023-02-26T13:09:12.534Z,-0.50
2023-02-26T13:12:10.389Z,-0.50
2023-02-26T13:14:57.879Z,-0.50
2023-02-26T13:17:50.473Z,-0.50
2023-02-26T13:20:22.122Z,-0.60
2023-02-26T13:22:54.923Z,-0.60
2023-02-26T13:25:52.598Z,-0.60
2023-02-26T13:28:26.269Z,-0.60
2023-02-26T13:30:55.827Z,-0.60
2023-02-26T13:33:31.690Z,-0.50
2023-02-26T13:36:03.029Z,-0.50
2023-02-26T13:39:34.132Z,-0.40
2023-02-26T13:42:25.682Z,-0.30
2023-02-26T13:45:45.093Z,-0.20
2023-02-26T13:48:20.522Z,-0.20
2023-02-26T13:51:00.714Z,-0.20
2023-02-26T13:54:32.404Z,-0.20
2023-02-26T13:57:46.163Z,-0.30
2023-02-26T14:00:25.242Z,-0.50
2023-02-26T14:03:10.343Z,-0.60
2023-02-26T14:06:20.981Z,-0.60
2023-02-26T14:08:55.346Z,-0.60
2023-02-26T14:11:44.043Z,-0.60
2023-02-26T14:14:24.945Z,-0.50
2023-02-26T14:16:54.947Z,-0.50
2023-02-26T14:23:38.042Z,-0.50
2023-02-26T14:26:11.237Z,-0.60
2023-02-26T14:33:03.677Z,-0.70
2023-02-26T14:35:37.019Z,-0.80
2023-02-26T14:42:46.683Z,-0.60
2023-02-26T14:45:27.286Z,-0.50
2023-02-26T14:47:56.653Z,-0.40
2023-02-26T14:50:24.486Z,-0.40
2023-02-26T14:53:21.418Z,-0.40
2023-02-26T14:56:05.810Z,-0.40
2023-02-26T14:58:43.129Z,-0.50
2023-02-26T15:01:32.119Z,-0.50
2023-02-26T15:04:15.293Z,-0.50
2023-02-26T15:07:15.781Z,-0.50
2023-02-26T15:10:14.103Z,-0.40
2023-02-26T15:12:53.874Z,-0.40
2023-02-26T15:15:33.507Z,-0.50
2023-02-26T15:18:56.024Z,-0.60
2023-02-26T15:21:26.041Z,-0.60
2023-02-26T15:23:55.608Z,-0.60
2023-02-26T15:26:33.327Z,-0.60
2023-02-26T15:33:21.369Z,-0.70
2023-02-26T15:39:53.000Z,-0.80
2023-02-26T15:42:23.979Z,-0.80
2023-02-26T15:44:57.112Z,-0.90
2023-02-26T15:47:24.671Z,-0.90
2023-02-26T15:49:52.012Z,-0.80
2023-02-26T15:52:23.470Z,-0.80
2023-02-26T15:54:54.713Z,-0.70
2023-02-26T15:57:24.380Z,-0.80
2023-02-26T15:59:54.931Z,-0.80
2023-02-26T16:02:30.979Z,-0.90
2023-02-26T16:04:58.225Z,-0.90
2023-02-26T16:07:25.513Z,-0.90
2023-02-26T16:09:54.814Z,-1.00
2023-02-26T16:12:43.716Z,-1.10
2023-02-26T16:15:19.036Z,-1.10
2023-02-26T16:17:50.632Z,-1.10
2023-02-26T16:20:21.214Z,-1.20
2023-02-26T16:22:51.821Z,-1.20
2023-02-26T16:25:47.460Z,-1.20
2023-02-26T16:28:22.297Z,-1.30
2023-02-26T16:30:54.224Z,-1.30
2023-02-26T16:33:25.052Z,-1.30
2023-02-26T16:36:21.911Z,-1.40
2023-02-26T16:38:56.889Z,-1.40
2023-02-26T16:41:31.747Z,-1.50
2023-02-26T16:44:01.484Z,-1.50
2023-02-26T16:46:45.269Z,-1.50
2023-02-26T16:49:55.692Z,-1.50
2023-02-26T16:52:26.361Z,-1.50
2023-02-26T16:54:58.398Z,-1.60
2023-02-26T16:57:39.825Z,-1.60
2023-02-26T17:00:17.798Z,-1.60
2023-02-26T17:02:48.759Z,-1.70
2023-02-26T17:06:05.476Z,-1.70
2023-02-26T17:08:53.742Z,-1.70
2023-02-26T17:11:25.828Z,-1.80
2023-02-26T17:14:27.450Z,-1.80
2023-02-26T17:16:54.570Z,-1.80
2023-02-26T17:19:22.286Z,-1.90
2023-02-26T17:21:54.278Z,-1.90
2023-02-26T17:24:32.503Z,-1.90
2023-02-26T17:27:01.288Z,-1.90
2023-02-26T17:29:34.198Z,-1.90
2023-02-26T17:32:01.311Z,-1.90
2023-02-26T17:34:28.381Z,-1.90
2023-02-26T17:36:56.984Z,-1.90
2023-02-26T17:39:23.988Z,-2.00
2023-02-26T17:41:51.460Z,-2.00
2023-02-26T17:48:19.392Z,-2.00
2023-02-26T17:50:52.610Z,-2.00
2023-02-26T17:53:21.751Z,-2.10
2023-02-26T17:55:52.395Z,-2.10
2023-02-26T17:58:27.202Z,-2.10
2023-02-26T18:00:54.289Z,-2.10
2023-02-26T18:03:22.053Z,-2.10
2023-02-26T18:05:51.325Z,-2.20
2023-02-26T18:08:31.193Z,-2.20
2023-02-26T18:10:59.696Z,-2.20
2023-02-26T18:13:28.131Z,-2.20
2023-02-26T18:15:58.176Z,-2.20
2023-02-26T18:18:26.783Z,-2.20
2023-02-26T18:20:54.639Z,-2.20
2023-02-26T18:23:41.887Z,-2.30
2023-02-26T18:26:11.610Z,-2.30
2023-02-26T18:28:38.867Z,-2.30
2023-02-26T18:31:09.361Z,-2.30
2023-02-26T18:33:38.694Z,-2.30
2023-02-26T18:37:15.185Z,-2.30
2023-02-26T18:39:42.930Z,-2.30
2023-02-26T18:42:36.197Z,-2.40
2023-02-26T18:45:03.254Z,-2.40
2023-02-26T18:51:42.124Z,-2.50
2023-02-26T18:54:09.116Z,-2.50
2023-02-26T18:56:36.857Z,-2.50
2023-02-26T18:59:04.107Z,-2.50
2023-02-26T19:01:31.819Z,-2.60
2023-02-26T19:03:58.976Z,-2.70
2023-02-26T19:10:45.644Z,-2.70
2023-02-26T19:13:12.595Z,-2.70
2023-02-26T19:15:39.875Z,-2.80
2023-02-26T19:18:06.918Z,-2.80
2023-02-26T19:20:34.528Z,-2.90
2023-02-26T19:23:03.245Z,-2.90
2023-02-26T19:25:31.021Z,-2.90
2023-02-26T19:27:58.302Z,-2.90
2023-02-26T19:30:25.398Z,-2.90
2023-02-26T19:33:43.901Z,-3.00
2023-02-26T19:36:11.102Z,-3.00
2023-02-26T19:38:38.114Z,-3.00
2023-02-26T19:41:05.287Z,-3.00
2023-02-26T19:43:32.366Z,-3.10
2023-02-26T19:45:59.361Z,-3.10
2023-02-26T19:48:27.210Z,-3.10
2023-02-26T19:50:55.507Z,-3.10
2023-02-26T19:53:22.582Z,-3.10
2023-02-26T19:55:50.949Z,-3.10
2023-02-26T19:58:19.735Z,-3.10
2023-02-26T20:00:46.778Z,-3.20
2023-02-26T20:03:28.836Z,-3.20
2023-02-26T20:05:56.352Z,-3.20
2023-02-26T20:08:26.934Z,-3.20
2023-02-26T20:11:24.945Z,-3.20
2023-02-26T20:13:52.241Z,-3.20
2023-02-26T20:16:19.915Z,-3.30
2023-02-26T20:18:46.910Z,-3.30
2023-02-26T20:21:14.374Z,-3.30
2023-02-26T20:23:45.526Z,-3.30
2023-02-26T20:26:14.482Z,-3.30
2023-02-26T20:28:42.423Z,-3.30
2023-02-26T20:31:10.069Z,-3.30
2023-02-26T20:34:39.200Z,-3.40
2023-02-26T20:37:06.143Z,-3.40
2023-02-26T20:39:33.172Z,-3.40
2023-02-26T20:42:00.134Z,-3.50
2023-02-26T20:44:27.101Z,-3.50
2023-02-26T20:46:55.040Z,-3.50
2023-02-26T20:49:22.122Z,-3.50
2023-02-26T20:51:50.593Z,-3.50
2023-02-26T20:54:19.931Z,-3.50
2023-02-26T20:56:48.817Z,-3.50
2023-02-26T20:59:19.759Z,-3.50
2023-02-26T21:01:47.705Z,-3.50
2023-02-26T21:04:41.812Z,-3.50
2023-02-26T21:07:21.866Z,-3.60
2023-02-26T21:09:52.358Z,-3.60
2023-02-26T21:12:19.673Z,-3.60
2023-02-26T21:14:47.039Z,-3.60
2023-02-26T21:17:14.029Z,-3.60
2023-02-26T21:19:43.765Z,-3.60
2023-02-26T21:22:11.462Z,-3.50
2023-02-26T21:24:38.664Z,-3.60
2023-02-26T21:27:06.378Z,-3.60
2023-02-26T21:29:33.426Z,-3.60
2023-02-26T21:32:03.599Z,-3.60
2023-02-26T21:34:34.241Z,-3.60
2023-02-26T21:37:10.504Z,-3.60
2023-02-26T21:40:45.146Z,-3.60
2023-02-26T21:43:12.144Z,-3.60
2023-02-26T21:45:39.744Z,-3.60
2023-02-26T21:48:06.697Z,-3.60
2023-02-26T21:50:33.901Z,-3.60
2023-02-26T21:53:00.875Z,-3.60
2023-02-26T21:55:27.992Z,-3.60
2023-02-26T21:57:54.948Z,-3.60
2023-02-26T22:00:22.374Z,-3.60
2023-02-26T22:02:49.341Z,-3.60
2023-02-26T22:05:16.395Z,-3.70
2023-02-26T22:07:44.530Z,-3.70
2023-02-26T22:10:12.454Z,-3.70
2023-02-26T22:12:39.404Z,-3.70
2023-02-26T22:15:07.160Z,-3.70
2023-02-26T22:17:34.113Z,-3.70
2023-02-26T22:20:01.105Z,-3.70
2023-02-26T22:22:28.153Z,-3.70
2023-02-26T22:24:55.144Z,-3.70
2023-02-26T22:27:22.598Z,-3.80
2023-02-26T22:29:49.644Z,-3.80
2023-02-26T22:32:16.701Z,-3.80
2023-02-26T22:34:45.252Z,-3.80
2023-02-26T22:37:13.093Z,-3.80
2023-02-26T22:39:40.104Z,-3.80
2023-02-26T22:42:08.543Z,-3.90
2023-02-26T22:44:35.584Z,-3.90
2023-02-26T22:47:02.580Z,-3.90
2023-02-26T22:49:29.538Z,-3.90
2023-02-26T22:51:56.537Z,-3.90
2023-02-26T22:54:23.822Z,-3.90
2023-02-26T22:56:50.886Z,-3.90
2023-02-26T22:59:18.266Z,-3.90
2023-02-26T23:01:45.307Z,-3.90
2023-02-26T23:04:12.386Z,-4.00
2023-02-26T23:06:39.389Z,-4.00
2023-02-26T23:09:06.374Z,-4.00
2023-02-26T23:11:33.434Z,-4.00
2023-02-26T23:14:00.392Z,-4.00
2023-02-26T23:17:41.375Z,-4.00
2023-02-26T23:20:10.973Z,-4.00
2023-02-26T23:22:38.778Z,-4.00
2023-02-26T23:25:06.154Z,-4.00
2023-02-26T23:27:33.146Z,-4.00
2023-02-26T23:30:00.143Z,-4.00
2023-02-26T23:32:27.169Z,-4.00
2023-02-26T23:34:54.489Z,-3.90
2023-02-26T23:37:21.508Z,-3.90
2023-02-26T23:39:49.198Z,-3.90
2023-02-26T23:42:16.399Z,-3.90
2023-02-26T23:44:43.502Z,-3.90
2023-02-26T23:47:10.825Z,-4.00
2023-02-26T23:49:37.913Z,-4.00
2023-02-26T23:52:05.209Z,-4.00
2023-02-26T23:54:44.084Z,-4.00
2023-02-26T23:57:11.093Z,-4.00
2023-02-26T23:59:38.031Z,-4.10
